Greenacres, WA (99016)

7:39 PM PST on March 01, 2015 (GMT -0800)
Morningside | Change Station
CLOSE
Current Station
Personal Weather Station
Location: Greenacres, WA
Elevation: 2337 ft
Nearby Weather Stations

Elev 2337 ft 47.63 °N, 117.17 °W | Updated 22 seconds ago

Partly Cloudy
Partly Cloudy
36.1 °F
Feels Like 36 °F
N
0.0
Wind Variable Wind from South
Gusts 0.0 mph

Today
High -- | Low -- °F
--% Chance of Precip.
Yesterday
High -- | Low -- °F
Precip. -- in
6:29 AM 5:33 PM
Waxing Gibbous, 89% visible
Pressure 30.05 in
Visibility 10.0 miles
Clouds Few 11000 ft
Windchill 36 °F
Dew Point -2 °F
Humidity 19%
Rainfall 0.00 in
Snow Depth Not available.
UV 0 out of 12
Pollen 2.60 out of 12
Air Quality Not available.
Flu Activity Not available.
METAR KSFF 020253Z 03003KT 10SM FEW110 02/M09 A2999 RMK AO2 SLP175 T00171089 56021

More Conditions Fewer Conditions

Pressure 30.05 in
Visibility 10.0 miles
Clouds Few 11000 ft
Windchill 36 °F
Dew Point -2 °F
Humidity 19%
Rainfall 0.00 in
Snow Depth Not available.
UV 0 out of 12
Pollen 2.60 out of 12
Air Quality Not available.
Flu Activity Not available.
METAR KSFF 020253Z 03003KT 10SM FEW110 02/M09 A2999 RMK AO2 SLP175 T00171089 56021

More Conditions Fewer Conditions

10-Day Weather Forecast

Almanac

Astronomy

Mar. 01, 2015 Rise Set
Actual Time
Civil Twilight
Nautical Twilight
Astronomical Twilight
Moon
Length of Visible Light
Length of Day
Tomorrow will be .
, % of the Moon is Illuminated

Today's Extremes

State Highs State Lows

Community

WunderPhotos

Upload Photos

1,801,717 photos uploaded!

WunderBlogs® & News

Nearby

Air Quality

  Air Quality AQ Index Pollutant
Not available.

Snow Depth

Station Depth Elevation

Earthquake Activity

City Distance Mag. Time & Date
Minimum magnitude displayed is 2.5.

Coastal Water Temperatures

Place Temperature

Nearby Weather Stations